Time;durP1;ratioP1;P1;durP2;ratioP2;P2;SDS_P1;SDS_P2;PMS_P1;PMS_P2;Temp;Humidity;BMP_temperature;BMP_pressure;BME280_temperature;BME280_humidity;BME280_pressure;Samples;Min_cycle;Max_cycle;Signal;HPM_P1;HPM_P2
2023/05/07 00:00:07;;;;;;;;;;;18.50;99.90;18.60;99330.00;;;;333169;29;95547;-94
2023/05/07 00:00:20;;;;;;;;;;;18.50;99.90;18.50;99330.00;;;;336960;28;82551;-95
2023/05/07 00:00:33;;;;;;;;;;;18.50;99.90;18.50;99331.00;;;;335184;29;96470;-95
2023/05/07 00:00:46;;;;;;;;;;;18.50;99.90;18.60;99327.00;;;;335845;28;82552;-96
2023/05/07 00:00:59;;;;;;;;;;;18.50;99.80;18.70;99329.00;;;;336229;28;94578;-95
2023/05/07 00:01:11;;;;;;;;;;;18.50;99.80;18.70;99335.00;;;;336989;28;83391;-95
2023/05/07 00:01:22;;;;;;;;;;;18.50;99.80;18.70;99330.00;;;;335062;29;95613;-95
2023/05/07 00:01:35;;;;;;;;;;;18.50;99.80;18.50;99329.00;;;;336402;29;82315;-95
2023/05/07 00:01:47;;;;;;;;;;;18.50;99.90;18.60;99337.00;;;;334941;29;96413;-94
2023/05/07 00:02:01;;;;;;;;;;;18.50;99.90;18.50;99326.00;;;;334443;29;82474;-95
2023/05/07 00:02:14;;;;;;;;;;;18.50;99.90;18.70;99332.00;;;;335266;29;95239;-96
2023/05/07 00:02:30;;;;;;;;;;;18.50;99.90;18.70;99329.00;;;;337967;28;82389;-96
2023/05/07 00:02:46;;;;;;;;;;;18.50;99.80;18.50;99334.00;;;;335268;28;95318;-96
2023/05/07 00:02:59;;;;;;;;;;;18.50;99.90;18.60;99336.00;;;;337053;28;82646;-95
2023/05/07 00:03:13;;;;;;;;;;;18.50;99.80;18.70;99340.00;;;;334841;29;95709;-95
2023/05/07 00:03:28;;;;;;;;;;;18.50;99.80;18.70;99333.00;;;;333076;29;83615;-96
2023/05/07 00:03:44;;;;;;;;;;;18.50;99.80;18.70;99333.00;;;;335311;29;95940;-96
2023/05/07 00:03:57;;;;;;;;;;;18.50;99.90;18.60;99336.00;;;;335609;29;82618;-95
2023/05/07 00:04:10;;;;;;;;;;;18.50;99.80;18.70;99332.00;;;;334981;29;95902;-95
2023/05/07 00:04:24;;;;;;;;;;;18.50;99.70;18.70;99332.00;;;;336055;28;82292;-95
2023/05/07 00:04:38;;;;;;;;;;;18.50;99.60;18.70;99334.00;;;;336594;28;95652;-95
2023/05/07 00:04:51;;;;;;;;;;;18.50;99.70;18.70;99335.00;;;;339682;28;82627;-94
2023/05/07 00:05:04;;;;;;;;;;;18.50;99.60;18.60;99339.00;;;;336112;28;95527;-95
2023/05/07 00:05:16;;;;;;;;;;;18.50;99.70;18.70;99341.00;;;;337011;28;83885;-95
2023/05/07 00:05:28;;;;;;;;;;;18.50;99.60;18.60;99347.00;;;;338241;28;96050;-95
2023/05/07 00:05:41;;;;;;;;;;;18.50;99.60;18.60;99349.00;;;;339769;28;82608;-95
2023/05/07 00:05:53;;;;;;;;;;;18.50;99.70;18.50;99334.00;;;;336849;28;94486;-96
2023/05/07 00:06:05;;;;;;;;;;;18.50;99.80;18.60;99342.00;;;;336275;29;82370;-95
2023/05/07 00:06:25;;;;;;;;;;;18.40;99.70;18.50;99337.00;;;;337114;28;95851;-95
2023/05/07 00:06:41;;;;;;;;;;;18.40;99.70;18.50;99336.00;;;;336381;28;82654;-95
2023/05/07 00:07:02;;;;;;;;;;;18.40;99.80;18.50;99342.00;;;;336788;28;94175;-96
2023/05/07 00:07:15;;;;;;;;;;;18.40;99.60;18.50;99332.00;;;;339813;28;82636;-95
2023/05/07 00:07:27;;;;;;;;;;;18.40;99.60;18.40;99331.00;;;;334601;28;94387;-94
2023/05/07 00:07:40;;;;;;;;;;;18.40;99.60;18.50;99341.00;;;;337505;28;83203;-96
2023/05/07 00:07:55;;;;;;;;;;;18.40;99.60;18.40;99334.00;;;;339199;28;94966;-96
2023/05/07 00:08:10;;;;;;;;;;;18.40;99.60;18.50;99335.00;;;;337486;28;82329;-95
2023/05/07 00:08:22;;;;;;;;;;;18.30;99.50;18.60;99342.00;;;;337934;28;92816;-95
2023/05/07 00:08:34;;;;;;;;;;;18.40;99.50;18.50;99344.00;;;;338489;28;82340;-95
2023/05/07 00:08:46;;;;;;;;;;;18.40;99.60;18.50;99334.00;;;;335101;29;95968;-94
2023/05/07 00:08:58;;;;;;;;;;;18.30;99.40;18.50;99333.00;;;;337324;28;82373;-94
2023/05/07 00:09:10;;;;;;;;;;;18.30;99.40;18.60;99344.00;;;;338015;28;94916;-94
2023/05/07 00:09:22;;;;;;;;;;;18.30;99.40;18.50;99326.00;;;;341196;28;82507;-93
2023/05/07 00:09:34;;;;;;;;;;;18.30;99.40;18.50;99330.00;;;;337799;28;95862;-95
2023/05/07 00:09:46;;;;;;;;;;;18.40;99.50;18.50;99332.00;;;;337142;29;82553;-95
2023/05/07 00:09:58;;;;;;;;;;;18.30;99.40;18.60;99336.00;;;;337883;28;96000;-94
2023/05/07 00:10:12;;;;;;;;;;;18.40;99.40;18.50;99332.00;;;;338615;28;82562;-95
2023/05/07 00:10:25;;;;;;;;;;;18.30;99.40;18.50;99333.00;;;;336157;28;97550;-95
2023/05/07 00:10:37;;;;;;;;;;;18.30;99.40;18.50;99326.00;;;;339993;28;82468;-95
2023/05/07 00:10:49;;;;;;;;;;;18.30;99.40;18.50;99333.00;;;;337880;28;96493;-94
2023/05/07 00:11:00;;;;;;;;;;;18.40;99.40;18.50;99329.00;;;;337736;28;82560;-95
2023/05/07 00:11:12;;;;;;;;;;;18.30;99.40;18.50;99332.00;;;;338162;28;92179;-94
2023/05/07 00:11:25;;;;;;;;;;;18.40;99.40;18.50;99328.00;;;;338389;28;82579;-95
2023/05/07 00:11:37;;;;;;;;;;;18.30;99.40;18.50;99329.00;;;;337065;28;95658;-95
2023/05/07 00:11:49;;;;;;;;;;;18.30;99.40;18.50;99334.00;;;;334236;29;82699;-94
2023/05/07 00:12:01;;;;;;;;;;;18.30;99.40;18.40;99337.00;;;;335841;28;94225;-94
2023/05/07 00:12:13;;;;;;;;;;;18.30;99.40;18.40;99341.00;;;;336884;28;82376;-94
2023/05/07 00:12:25;;;;;;;;;;;18.30;99.50;18.30;99339.00;;;;333608;29;95369;-95
2023/05/07 00:12:37;;;;;;;;;;;18.30;99.80;18.30;99336.00;;;;337212;28;82508;-95
2023/05/07 00:12:49;;;;;;;;;;;18.30;99.50;18.40;99339.00;;;;333805;28;95547;-94
2023/05/07 00:13:01;;;;;;;;;;;18.30;99.50;18.40;99348.00;;;;338398;28;83392;-95
2023/05/07 00:13:13;;;;;;;;;;;18.30;99.40;18.40;99338.00;;;;334787;28;94563;-94
2023/05/07 00:13:25;;;;;;;;;;;18.30;99.40;18.40;99346.00;;;;333880;29;83624;-90
2023/05/07 00:13:37;;;;;;;;;;;18.30;99.40;18.40;99333.00;;;;334602;29;95595;-94
2023/05/07 00:13:49;;;;;;;;;;;18.30;99.40;18.30;99346.00;;;;335410;29;82479;-95
2023/05/07 00:14:01;;;;;;;;;;;18.30;99.50;18.40;99339.00;;;;335756;28;96262;-94
2023/05/07 00:14:12;;;;;;;;;;;18.20;99.50;18.40;99336.00;;;;335702;29;82609;-94
2023/05/07 00:14:24;;;;;;;;;;;18.30;99.50;18.20;99342.00;;;;335068;28;94168;-95
2023/05/07 00:14:36;;;;;;;;;;;18.20;99.30;18.30;99341.00;;;;335692;29;82359;-95
2023/05/07 00:14:48;;;;;;;;;;;18.20;99.30;18.30;99342.00;;;;336132;28;95772;-95
2023/05/07 00:15:04;;;;;;;;;;;18.20;99.40;18.30;99340.00;;;;335420;28;82580;-95
2023/05/07 00:15:16;;;;;;;;;;;18.20;99.30;18.40;99346.00;;;;338033;28;94873;-94
2023/05/07 00:15:28;;;;;;;;;;;18.20;99.30;18.40;99340.00;;;;333911;29;82628;-94
2023/05/07 00:15:40;;;;;;;;;;;18.20;99.30;18.40;99341.00;;;;334578;29;95525;-95
2023/05/07 00:15:53;;;;;;;;;;;18.20;99.40;18.20;99342.00;;;;336787;28;82544;-94
2023/05/07 00:16:05;;;;;;;;;;;18.20;99.40;18.30;99342.00;;;;334836;28;94656;-95
2023/05/07 00:16:17;;;;;;;;;;;18.20;99.40;18.30;99348.00;;;;336434;28;83531;-94
2023/05/07 00:16:29;;;;;;;;;;;18.20;99.40;18.30;99342.00;;;;333202;29;95972;-93
2023/05/07 00:16:41;;;;;;;;;;;18.20;99.40;18.30;99350.00;;;;336905;28;82469;-95
2023/05/07 00:16:53;;;;;;;;;;;18.20;99.40;18.30;99343.00;;;;335870;28;95231;-94
2023/05/07 00:17:05;;;;;;;;;;;18.20;99.40;18.30;99345.00;;;;336930;28;83090;-94
2023/05/07 00:17:16;;;;;;;;;;;18.20;99.60;18.30;99343.00;;;;333365;29;95376;-94
2023/05/07 00:17:29;;;;;;;;;;;18.10;99.30;18.30;99345.00;;;;338022;28;83529;-93
2023/05/07 00:17:41;;;;;;;;;;;18.20;99.40;18.20;99355.00;;;;334800;29;95370;-94
2023/05/07 00:17:53;;;;;;;;;;;18.20;99.40;18.30;99348.00;;;;335930;28;82541;-93
2023/05/07 00:18:05;;;;;;;;;;;18.20;99.40;18.20;99343.00;;;;338332;28;95822;-94
2023/05/07 00:18:20;;;;;;;;;;;18.10;99.40;18.20;99352.00;;;;334417;28;82607;-94
2023/05/07 00:18:32;;;;;;;;;;;18.20;99.30;18.30;99342.00;;;;334800;29;95503;-95
2023/05/07 00:18:44;;;;;;;;;;;18.10;99.20;18.20;99355.00;;;;335502;29;83390;-93
2023/05/07 00:18:56;;;;;;;;;;;18.10;99.20;18.20;99355.00;;;;337178;28;96790;-95
2023/05/07 00:19:08;;;;;;;;;;;18.10;99.20;18.20;99344.00;;;;332923;29;82540;-94
2023/05/07 00:19:20;;;;;;;;;;;18.10;99.20;18.20;99359.00;;;;334772;28;95359;-93
2023/05/07 00:19:32;;;;;;;;;;;18.10;99.20;18.30;99350.00;;;;338168;28;82468;-94
2023/05/07 00:19:44;;;;;;;;;;;18.10;99.10;18.30;99352.00;;;;336151;28;97117;-92
2023/05/07 00:19:56;;;;;;;;;;;18.10;99.10;18.30;99359.00;;;;338143;28;82605;-93
2023/05/07 00:20:08;;;;;;;;;;;18.10;99.20;18.20;99361.00;;;;334901;29;95776;-93
2023/05/07 00:20:20;;;;;;;;;;;18.10;99.20;18.10;99353.00;;;;335640;29;83384;-92
2023/05/07 00:20:32;;;;;;;;;;;18.10;99.10;18.20;99366.00;;;;338830;28;95672;-93
2023/05/07 00:20:46;;;;;;;;;;;18.10;99.10;18.10;99353.00;;;;337513;28;82551;-94
2023/05/07 00:20:58;;;;;;;;;;;18.10;99.10;18.20;99360.00;;;;334347;29;96409;-93
2023/05/07 00:21:10;;;;;;;;;;;18.10;99.10;18.20;99352.00;;;;332907;29;82624;-93
2023/05/07 00:21:26;;;;;;;;;;;18.10;99.30;18.20;99362.00;;;;334809;28;96842;-93
2023/05/07 00:21:38;;;;;;;;;;;18.10;99.30;18.20;99354.00;;;;335414;29;82459;-94
2023/05/07 00:21:53;;;;;;;;;;;18.10;99.10;18.20;99360.00;;;;333307;29;97058;-93
2023/05/07 00:22:05;;;;;;;;;;;18.10;99.10;18.20;99362.00;;;;335576;29;82718;-93
2023/05/07 00:22:17;;;;;;;;;;;18.10;99.10;18.10;99349.00;;;;334417;29;96709;-92
2023/05/07 00:22:30;;;;;;;;;;;18.10;99.10;18.10;99357.00;;;;335490;29;83008;-93
2023/05/07 00:22:42;;;;;;;;;;;18.10;99.00;18.10;99346.00;;;;336099;28;95255;-93
2023/05/07 00:22:53;;;;;;;;;;;18.10;99.00;18.10;99362.00;;;;339508;28;82500;-93
2023/05/07 00:23:05;;;;;;;;;;;18.00;99.00;18.20;99364.00;;;;334652;29;97314;-93
2023/05/07 00:23:17;;;;;;;;;;;18.00;99.10;18.20;99359.00;;;;335494;29;83271;-94
2023/05/07 00:23:29;;;;;;;;;;;18.00;99.00;18.10;99360.00;;;;337020;28;95458;-94
2023/05/07 00:23:41;;;;;;;;;;;18.00;99.00;18.10;99355.00;;;;336845;28;82509;-94
2023/05/07 00:23:53;;;;;;;;;;;18.00;98.80;18.20;99360.00;;;;334730;28;95881;-92
2023/05/07 00:24:05;;;;;;;;;;;18.00;98.90;18.20;99352.00;;;;336840;28;82471;-93
2023/05/07 00:24:17;;;;;;;;;;;18.00;98.90;18.10;99352.00;;;;334776;29;96847;-93
2023/05/07 00:24:29;;;;;;;;;;;18.00;98.80;18.10;99350.00;;;;336839;28;82584;-94
2023/05/07 00:24:41;;;;;;;;;;;18.00;98.80;18.10;99362.00;;;;333414;29;94232;-92
2023/05/07 00:24:52;;;;;;;;;;;18.00;98.80;18.10;99357.00;;;;338112;28;83472;-93
2023/05/07 00:25:05;;;;;;;;;;;18.00;98.80;18.10;99344.00;;;;335887;28;97173;-94
2023/05/07 00:25:19;;;;;;;;;;;18.00;98.90;18.00;99361.00;;;;334270;29;83384;-93
2023/05/07 00:25:31;;;;;;;;;;;18.00;98.80;18.10;99358.00;;;;334889;28;95572;-93
2023/05/07 00:25:43;;;;;;;;;;;18.00;98.80;18.10;99365.00;;;;336844;28;82578;-92
2023/05/07 00:25:56;;;;;;;;;;;18.00;98.90;18.10;99359.00;;;;334705;29;96164;-93
2023/05/07 00:26:07;;;;;;;;;;;18.00;98.90;18.20;99358.00;;;;336800;28;82536;-92
2023/05/07 00:26:20;;;;;;;;;;;18.00;98.90;18.10;99362.00;;;;334324;29;96235;-93
2023/05/07 00:26:32;;;;;;;;;;;18.00;99.00;18.10;99359.00;;;;334088;29;83681;-92
2023/05/07 00:26:44;;;;;;;;;;;18.00;99.00;18.10;99361.00;;;;336048;28;95111;-93
2023/05/07 00:26:57;;;;;;;;;;;18.00;99.00;18.10;99365.00;;;;336760;28;82512;-92
2023/05/07 00:27:09;;;;;;;;;;;18.00;99.00;18.00;99356.00;;;;335798;28;97395;-92
2023/05/07 00:27:22;;;;;;;;;;;17.90;98.90;18.00;99364.00;;;;335531;28;82472;-93
2023/05/07 00:27:34;;;;;;;;;;;17.90;99.00;18.10;99368.00;;;;334618;29;96209;-91
2023/05/07 00:27:45;;;;;;;;;;;17.90;99.00;18.10;99367.00;;;;336875;28;83400;-92
2023/05/07 00:28:02;;;;;;;;;;;17.90;99.00;18.10;99362.00;;;;336024;28;95828;-92
2023/05/07 00:28:14;;;;;;;;;;;17.90;99.10;18.10;99368.00;;;;336744;28;83465;-93
2023/05/07 00:28:26;;;;;;;;;;;18.00;99.10;18.10;99365.00;;;;335729;28;95345;-92
2023/05/07 00:28:38;;;;;;;;;;;17.90;99.00;18.20;99369.00;;;;336281;28;84498;-93
2023/05/07 00:28:49;;;;;;;;;;;17.90;99.00;18.10;99362.00;;;;335563;28;96735;-93
2023/05/07 00:29:01;;;;;;;;;;;18.00;99.00;18.20;99362.00;;;;336809;28;82392;-94
2023/05/07 00:29:13;;;;;;;;;;;17.90;99.00;18.10;99366.00;;;;335343;28;97692;-93
2023/05/07 00:29:25;;;;;;;;;;;17.90;99.00;18.20;99362.00;;;;336408;28;82425;-92
2023/05/07 00:29:37;;;;;;;;;;;17.90;99.00;18.10;99356.00;;;;334359;29;96929;-93
2023/05/07 00:29:48;;;;;;;;;;;17.90;99.00;18.10;99355.00;;;;337768;28;82534;-92
2023/05/07 00:30:00;;;;;;;;;;;18.00;99.00;18.10;99362.00;;;;334714;29;95530;-93
2023/05/07 00:30:12;;;;;;;;;;;17.90;99.00;18.10;99361.00;;;;334206;29;83422;-93
2023/05/07 00:30:24;;;;;;;;;;;18.00;98.90;18.10;99363.00;;;;334727;29;96288;-93
2023/05/07 00:30:36;;;;;;;;;;;17.90;98.90;18.10;99359.00;;;;335245;28;83460;-92
2023/05/07 00:30:48;;;;;;;;;;;17.90;98.80;18.10;99361.00;;;;332211;29;96628;-93
2023/05/07 00:31:00;;;;;;;;;;;17.90;98.80;18.20;99364.00;;;;335458;28;83197;-94
2023/05/07 00:31:12;;;;;;;;;;;17.90;98.80;18.10;99364.00;;;;334664;29;96844;-93
2023/05/07 00:31:24;;;;;;;;;;;18.00;98.90;18.10;99375.00;;;;334120;29;83394;-93
2023/05/07 00:31:36;;;;;;;;;;;17.90;98.90;18.10;99365.00;;;;334886;29;93945;-93
2023/05/07 00:31:49;;;;;;;;;;;17.90;98.90;18.10;99363.00;;;;334165;29;83434;-92
2023/05/07 00:32:01;;;;;;;;;;;17.90;98.90;18.10;99366.00;;;;336889;28;96595;-92
2023/05/07 00:32:13;;;;;;;;;;;17.90;98.90;18.10;99365.00;;;;335422;28;83487;-93
2023/05/07 00:32:25;;;;;;;;;;;17.90;98.80;18.10;99355.00;;;;333340;29;96744;-92
2023/05/07 00:32:37;;;;;;;;;;;17.90;98.90;18.10;99363.00;;;;339377;28;83375;-93
2023/05/07 00:32:50;;;;;;;;;;;17.90;98.90;18.20;99360.00;;;;335949;28;95228;-91
2023/05/07 00:33:02;;;;;;;;;;;17.90;98.90;18.20;99367.00;;;;334043;28;83409;-91
2023/05/07 00:33:14;;;;;;;;;;;17.90;98.90;18.10;99361.00;;;;333506;29;96561;-93
2023/05/07 00:33:26;;;;;;;;;;;17.90;98.80;18.10;99363.00;;;;335571;29;83382;-92
2023/05/07 00:33:38;;;;;;;;;;;17.90;98.80;18.10;99357.00;;;;333629;29;95242;-92
2023/05/07 00:33:50;;;;;;;;;;;17.90;98.80;18.10;99364.00;;;;335260;29;82581;-92
2023/05/07 00:34:02;;;;;;;;;;;18.00;98.80;18.10;99363.00;;;;335825;28;95279;-92
2023/05/07 00:34:14;;;;;;;;;;;17.90;98.80;18.20;99362.00;;;;334403;29;83423;-92
2023/05/07 00:34:26;;;;;;;;;;;17.90;98.80;18.20;99365.00;;;;337463;28;96186;-92
2023/05/07 00:34:39;;;;;;;;;;;17.90;98.90;18.30;99359.00;;;;337078;28;83229;-92
2023/05/07 00:34:51;;;;;;;;;;;17.90;98.80;18.20;99368.00;;;;336380;28;95341;-93
2023/05/07 00:35:04;;;;;;;;;;;17.90;98.90;18.20;99369.00;;;;336702;28;83534;-92
2023/05/07 00:35:16;;;;;;;;;;;17.90;99.20;18.20;99365.00;;;;333210;29;96550;-91
2023/05/07 00:35:28;;;;;;;;;;;17.90;98.90;18.10;99363.00;;;;336965;28;82487;-92
2023/05/07 00:35:40;;;;;;;;;;;17.90;98.90;18.10;99366.00;;;;337249;28;97316;-92
2023/05/07 00:35:52;;;;;;;;;;;17.90;98.90;18.10;99362.00;;;;337542;28;82410;-92
2023/05/07 00:36:04;;;;;;;;;;;17.90;98.90;18.20;99363.00;;;;334898;28;95538;-93
2023/05/07 00:36:16;;;;;;;;;;;17.90;98.90;18.20;99361.00;;;;338065;28;82707;-92
2023/05/07 00:36:28;;;;;;;;;;;17.90;98.90;18.10;99368.00;;;;334562;29;95299;-93
2023/05/07 00:36:40;;;;;;;;;;;17.90;99.00;18.20;99369.00;;;;338118;28;83387;-93
2023/05/07 00:36:52;;;;;;;;;;;17.90;99.20;18.20;99366.00;;;;338729;28;96944;-92
2023/05/07 00:37:04;;;;;;;;;;;17.90;98.90;18.10;99365.00;;;;337736;28;83520;-94
2023/05/07 00:37:17;;;;;;;;;;;17.90;99.00;18.00;99364.00;;;;335341;28;97868;-93
2023/05/07 00:37:29;;;;;;;;;;;18.00;99.00;18.00;99364.00;;;;335764;29;83415;-95
2023/05/07 00:37:41;;;;;;;;;;;17.90;99.00;18.10;99367.00;;;;334693;29;93962;-94
2023/05/07 00:37:53;;;;;;;;;;;17.90;99.00;18.20;99368.00;;;;336908;28;83495;-93
2023/05/07 00:38:05;;;;;;;;;;;17.90;99.00;18.10;99370.00;;;;337593;28;94312;-93
2023/05/07 00:38:17;;;;;;;;;;;17.90;99.00;18.10;99367.00;;;;333096;29;82296;-92
2023/05/07 00:38:29;;;;;;;;;;;17.90;99.00;18.10;99357.00;;;;334531;29;95487;-93
2023/05/07 00:38:41;;;;;;;;;;;17.90;99.30;18.20;99366.00;;;;336801;28;83340;-92
2023/05/07 00:38:53;;;;;;;;;;;17.90;99.00;18.20;99369.00;;;;336205;28;92257;-94
2023/05/07 00:39:06;;;;;;;;;;;18.00;99.10;18.20;99366.00;;;;337199;28;82533;-92
2023/05/07 00:39:18;;;;;;;;;;;18.00;99.10;18.20;99371.00;;;;337082;28;96252;-94
2023/05/07 00:39:30;;;;;;;;;;;18.00;99.20;18.20;99374.00;;;;336049;29;82399;-94
2023/05/07 00:39:42;;;;;;;;;;;18.00;99.20;18.20;99367.00;;;;336532;28;96415;-93
2023/05/07 00:39:55;;;;;;;;;;;18.00;99.10;18.20;99366.00;;;;337306;28;82527;-93
2023/05/07 00:40:08;;;;;;;;;;;18.00;99.10;18.20;99366.00;;;;332785;29;94873;-93
2023/05/07 00:40:20;;;;;;;;;;;18.00;99.10;18.20;99364.00;;;;336759;28;82688;-93
2023/05/07 00:40:32;;;;;;;;;;;18.00;99.10;18.20;99372.00;;;;336836;28;95217;-93
2023/05/07 00:40:45;;;;;;;;;;;18.00;99.10;18.20;99364.00;;;;336840;28;82679;-93
2023/05/07 00:40:56;;;;;;;;;;;18.00;99.10;18.20;99363.00;;;;334542;29;95376;-94
2023/05/07 00:41:08;;;;;;;;;;;18.00;99.10;18.20;99368.00;;;;336227;29;82535;-94
2023/05/07 00:41:20;;;;;;;;;;;18.00;99.10;18.20;99372.00;;;;336525;28;95414;-93
2023/05/07 00:41:32;;;;;;;;;;;18.00;99.10;18.20;99365.00;;;;336511;28;82563;-94
2023/05/07 00:41:44;;;;;;;;;;;18.00;99.10;18.20;99370.00;;;;335783;29;95016;-94
2023/05/07 00:41:56;;;;;;;;;;;18.00;99.10;18.20;99368.00;;;;335930;28;82586;-95
2023/05/07 00:42:08;;;;;;;;;;;18.00;99.10;18.10;99369.00;;;;337712;28;95434;-93
2023/05/07 00:42:20;;;;;;;;;;;18.00;99.40;18.10;99366.00;;;;338593;28;82599;-93
2023/05/07 00:42:32;;;;;;;;;;;18.00;99.10;18.20;99367.00;;;;336518;28;95191;-93
2023/05/07 00:42:46;;;;;;;;;;;18.00;99.10;18.20;99373.00;;;;335955;28;82416;-95
2023/05/07 00:42:59;;;;;;;;;;;18.00;99.10;18.10;99364.00;;;;339072;28;94601;-93
2023/05/07 00:43:12;;;;;;;;;;;18.00;99.10;18.10;99359.00;;;;338888;28;82441;-94
2023/05/07 00:43:24;;;;;;;;;;;18.00;99.10;18.20;99365.00;;;;335053;29;95913;-93
2023/05/07 00:43:36;;;;;;;;;;;18.00;99.30;18.10;99364.00;;;;338634;28;82397;-91
2023/05/07 00:43:48;;;;;;;;;;;18.00;99.20;18.20;99357.00;;;;337266;28;94460;-94
2023/05/07 00:44:01;;;;;;;;;;;18.00;99.20;18.20;99365.00;;;;338606;28;82246;-95
2023/05/07 00:44:14;;;;;;;;;;;18.00;99.20;18.30;99362.00;;;;338483;28;95269;-93
2023/05/07 00:44:26;;;;;;;;;;;18.00;99.30;18.30;99363.00;;;;337186;28;82251;-92
2023/05/07 00:44:38;;;;;;;;;;;18.00;99.30;18.40;99364.00;;;;339055;28;95360;-92
2023/05/07 00:44:50;;;;;;;;;;;18.10;99.20;18.20;99359.00;;;;338594;28;82557;-93
2023/05/07 00:45:02;;;;;;;;;;;18.00;99.20;18.30;99358.00;;;;337831;28;95546;-94
2023/05/07 00:45:15;;;;;;;;;;;18.10;99.10;18.30;99363.00;;;;338469;28;82184;-92
2023/05/07 00:45:27;;;;;;;;;;;18.00;99.20;18.20;99369.00;;;;337436;28;95706;-92
2023/05/07 00:45:39;;;;;;;;;;;18.10;99.20;18.20;99379.00;;;;336033;29;82202;-92
2023/05/07 00:45:51;;;;;;;;;;;18.00;99.20;18.20;99368.00;;;;335035;29;95143;-91
2023/05/07 00:46:03;;;;;;;;;;;18.00;99.20;18.20;99369.00;;;;338593;28;82190;-90
2023/05/07 00:46:15;;;;;;;;;;;18.10;99.20;18.20;99373.00;;;;339655;28;95830;-93
2023/05/07 00:46:27;;;;;;;;;;;18.00;99.20;18.10;99367.00;;;;338683;28;82576;-95
2023/05/07 00:46:40;;;;;;;;;;;18.00;99.20;18.20;99367.00;;;;337329;28;92811;-95
2023/05/07 00:46:52;;;;;;;;;;;18.00;99.20;18.20;99369.00;;;;336606;29;83452;-93
2023/05/07 00:47:04;;;;;;;;;;;18.00;99.20;18.20;99367.00;;;;334547;29;96825;-93
2023/05/07 00:47:16;;;;;;;;;;;18.00;99.30;18.20;99370.00;;;;335269;29;82320;-92
2023/05/07 00:47:28;;;;;;;;;;;18.00;99.30;18.20;99370.00;;;;337263;28;95999;-92
2023/05/07 00:47:40;;;;;;;;;;;18.00;99.30;18.10;99370.00;;;;336805;29;82467;-92
2023/05/07 00:47:54;;;;;;;;;;;18.00;99.30;18.10;99376.00;;;;335835;29;97174;-93
2023/05/07 00:48:06;;;;;;;;;;;18.00;99.30;18.10;99373.00;;;;336687;29;82510;-92
2023/05/07 00:48:18;;;;;;;;;;;18.00;99.20;18.20;99372.00;;;;336883;28;95159;-92
2023/05/07 00:48:30;;;;;;;;;;;18.00;99.20;18.20;99367.00;;;;337591;28;83363;-93
2023/05/07 00:48:42;;;;;;;;;;;18.00;99.30;18.20;99373.00;;;;335933;29;94366;-92
2023/05/07 00:48:54;;;;;;;;;;;18.00;99.30;18.20;99370.00;;;;336687;29;82454;-92
2023/05/07 00:49:05;;;;;;;;;;;18.00;99.30;18.20;99374.00;;;;336902;28;95692;-93
2023/05/07 00:49:17;;;;;;;;;;;18.00;99.40;18.20;99375.00;;;;335095;29;83227;-92
2023/05/07 00:49:40;;;;;;;;;;;18.00;99.40;18.10;99374.00;;;;335116;29;97306;-92
2023/05/07 00:49:52;;;;;;;;;;;18.00;99.40;18.10;99372.00;;;;335565;29;82470;-92
2023/05/07 00:50:05;;;;;;;;;;;18.00;99.40;18.20;99378.00;;;;335856;28;96187;-94
2023/05/07 00:50:19;;;;;;;;;;;18.00;99.60;18.20;99378.00;;;;337510;28;82474;-93
2023/05/07 00:50:31;;;;;;;;;;;18.00;99.60;18.20;99376.00;;;;331783;29;96422;-94
2023/05/07 00:50:43;;;;;;;;;;;18.00;99.50;18.20;99379.00;;;;334281;29;83374;-92
2023/05/07 00:50:55;;;;;;;;;;;18.00;99.60;18.30;99377.00;;;;333353;29;95691;-92
2023/05/07 00:51:07;;;;;;;;;;;18.00;99.60;18.30;99380.00;;;;334067;29;82601;-93
2023/05/07 00:51:19;;;;;;;;;;;18.00;99.50;18.30;99378.00;;;;332611;29;92960;-92
2023/05/07 00:51:31;;;;;;;;;;;18.00;99.60;18.20;99384.00;;;;336676;28;83509;-92
2023/05/07 00:51:42;;;;;;;;;;;18.10;99.60;18.20;99385.00;;;;335720;28;96914;-93
2023/05/07 00:51:54;;;;;;;;;;;18.00;99.60;18.20;99383.00;;;;336746;28;83227;-94
2023/05/07 00:52:07;;;;;;;;;;;18.00;99.80;18.20;99374.00;;;;333456;29;96964;-94
2023/05/07 00:52:20;;;;;;;;;;;18.00;99.80;18.30;99381.00;;;;336804;28;82438;-92
2023/05/07 00:52:31;;;;;;;;;;;18.10;99.80;18.20;99386.00;;;;336043;28;95504;-92
2023/05/07 00:52:43;;;;;;;;;;;18.10;99.80;18.20;99382.00;;;;335405;28;82576;-93
2023/05/07 00:52:55;;;;;;;;;;;18.10;99.80;18.20;99380.00;;;;333393;29;96537;-93
2023/05/07 00:53:07;;;;;;;;;;;18.00;99.80;18.20;99379.00;;;;334171;29;82619;-92
2023/05/07 00:53:19;;;;;;;;;;;18.10;99.80;18.20;99385.00;;;;336071;28;95647;-92
2023/05/07 00:53:31;;;;;;;;;;;18.10;99.80;18.20;99379.00;;;;335458;29;83486;-93
2023/05/07 00:53:43;;;;;;;;;;;18.10;99.80;18.20;99393.00;;;;333422;29;96866;-92
2023/05/07 00:53:54;;;;;;;;;;;18.10;99.80;18.30;99385.00;;;;334224;29;83306;-93
2023/05/07 00:54:06;;;;;;;;;;;18.10;99.90;18.30;99384.00;;;;334726;29;96878;-93
2023/05/07 00:54:19;;;;;;;;;;;18.10;99.80;18.30;99383.00;;;;334993;28;82721;-92
2023/05/07 00:54:31;;;;;;;;;;;18.10;99.80;18.30;99386.00;;;;334653;29;97329;-93
2023/05/07 00:54:43;;;;;;;;;;;18.10;99.80;18.40;99382.00;;;;335511;29;82461;-94
2023/05/07 00:54:56;;;;;;;;;;;18.10;99.80;18.30;99386.00;;;;333427;29;96287;-92
2023/05/07 00:55:08;;;;;;;;;;;18.10;99.80;18.30;99386.00;;;;334007;29;82660;-93
2023/05/07 00:55:21;;;;;;;;;;;18.10;99.80;18.30;99394.00;;;;333408;29;96458;-94
2023/05/07 00:55:32;;;;;;;;;;;18.10;99.80;18.20;99388.00;;;;337102;28;83273;-95
2023/05/07 00:55:44;;;;;;;;;;;18.10;99.90;18.20;99399.00;;;;333372;29;96661;-92
2023/05/07 00:55:56;;;;;;;;;;;18.10;99.90;18.20;99388.00;;;;335438;29;82549;-92
2023/05/07 00:56:08;;;;;;;;;;;18.10;99.90;18.20;99387.00;;;;333174;29;95641;-93
2023/05/07 00:56:21;;;;;;;;;;;18.00;99.80;18.20;99398.00;;;;336766;28;82378;-92
2023/05/07 00:56:33;;;;;;;;;;;18.10;99.90;18.20;99393.00;;;;335881;28;96496;-92
2023/05/07 00:56:45;;;;;;;;;;;18.10;99.90;18.20;99391.00;;;;335505;29;83246;-93
2023/05/07 00:56:57;;;;;;;;;;;18.10;99.80;18.20;99402.00;;;;335514;28;95818;-95
2023/05/07 00:57:09;;;;;;;;;;;18.10;99.90;18.20;99396.00;;;;335137;29;83475;-92
2023/05/07 00:57:21;;;;;;;;;;;18.00;99.90;18.30;99386.00;;;;334766;29;96052;-92
2023/05/07 00:57:36;;;;;;;;;;;18.10;99.90;18.30;99398.00;;;;336708;28;82538;-92
2023/05/07 00:57:48;;;;;;;;;;;18.10;99.90;18.30;99402.00;;;;334569;29;96852;-92
2023/05/07 00:57:59;;;;;;;;;;;18.10;99.90;18.30;99396.00;;;;336744;28;83506;-93
2023/05/07 00:58:11;;;;;;;;;;;18.10;99.90;18.30;99397.00;;;;335524;28;94588;-93
2023/05/07 00:58:23;;;;;;;;;;;18.10;99.90;18.20;99398.00;;;;333716;29;82641;-92
2023/05/07 00:58:35;;;;;;;;;;;18.10;99.90;18.20;99396.00;;;;334693;29;96701;-93
2023/05/07 00:58:47;;;;;;;;;;;18.10;99.90;18.20;99402.00;;;;332718;29;83525;-92
2023/05/07 00:58:59;;;;;;;;;;;18.10;99.90;18.20;99403.00;;;;334737;29;96388;-94
2023/05/07 00:59:11;;;;;;;;;;;18.10;99.90;18.30;99408.00;;;;334133;29;82531;-93
2023/05/07 00:59:23;;;;;;;;;;;18.10;99.90;18.30;99404.00;;;;335603;28;96264;-92
2023/05/07 00:59:35;;;;;;;;;;;18.10;99.90;18.20;99398.00;;;;335428;29;82481;-92
2023/05/07 00:59:47;;;;;;;;;;;18.10;99.90;18.20;99412.00;;;;332027;29;96160;-92
2023/05/07 00:59:58;;;;;;;;;;;18.10;99.90;18.30;99414.00;;;;333949;29;82677;-93
2023/05/07 01:00:12;;;;;;;;;;;18.10;99.90;18.30;99406.00;;;;332022;29;96564;-95
2023/05/07 01:00:25;;;;;;;;;;;18.10;99.90;18.30;99408.00;;;;334157;29;82496;-94
2023/05/07 01:00:38;;;;;;;;;;;18.10;99.90;18.30;99410.00;;;;334681;29;96381;-94
2023/05/07 01:00:50;;;;;;;;;;;18.10;99.90;18.30;99414.00;;;;335486;29;83243;-94
2023/05/07 01:01:03;;;;;;;;;;;18.10;99.90;18.30;99416.00;;;;334682;29;95887;-92
2023/05/07 01:01:16;;;;;;;;;;;18.10;99.90;18.40;99415.00;;;;335328;28;82640;-93
2023/05/07 01:01:29;;;;;;;;;;;18.10;99.90;18.30;99416.00;;;;335719;28;98098;-95